sensor_id;sensor_type;location;lat;lon;timestamp;pressure;altitude;pressure_sealevel;temperature
41654;BMP280;30790;52.030;7.110;2022-11-12T00:00:52;102419.16;;;19.80
41654;BMP280;30790;52.030;7.110;2022-11-12T00:03:17;102414.94;;;19.77
41654;BMP280;30790;52.030;7.110;2022-11-12T00:05:43;102413.09;;;19.84
41654;BMP280;30790;52.030;7.110;2022-11-12T00:08:08;102411.59;;;19.75
41654;BMP280;30790;52.030;7.110;2022-11-12T00:10:34;102422.72;;;19.80
41654;BMP280;30790;52.030;7.110;2022-11-12T00:12:59;102409.50;;;19.77
41654;BMP280;30790;52.030;7.110;2022-11-12T00:15:25;102417.03;;;19.75
41654;BMP280;30790;52.030;7.110;2022-11-12T00:17:51;102423.53;;;19.74
41654;BMP280;30790;52.030;7.110;2022-11-12T00:20:16;102421.63;;;19.74
41654;BMP280;30790;52.030;7.110;2022-11-12T00:22:41;102431.69;;;19.74
41654;BMP280;30790;52.030;7.110;2022-11-12T00:25:07;102431.28;;;19.77
41654;BMP280;30790;52.030;7.110;2022-11-12T00:27:33;102421.84;;;19.73
41654;BMP280;30790;52.030;7.110;2022-11-12T00:29:59;102421.63;;;19.74
41654;BMP280;30790;52.030;7.110;2022-11-12T00:32:24;102426.63;;;19.71
41654;BMP280;30790;52.030;7.110;2022-11-12T00:34:49;102405.63;;;19.65
41654;BMP280;30790;52.030;7.110;2022-11-12T00:37:15;102428.31;;;19.72
41654;BMP280;30790;52.030;7.110;2022-11-12T00:39:41;102431.28;;;19.77
41654;BMP280;30790;52.030;7.110;2022-11-12T00:42:06;102432.47;;;19.68
41654;BMP280;30790;52.030;7.110;2022-11-12T00:44:31;102438.84;;;19.75
41654;BMP280;30790;52.030;7.110;2022-11-12T00:46:57;102441.28;;;19.70
41654;BMP280;30790;52.030;7.110;2022-11-12T00:49:22;102434.44;;;19.74
41654;BMP280;30790;52.030;7.110;2022-11-12T00:51:48;102438.03;;;19.81
41654;BMP280;30790;52.030;7.110;2022-11-12T00:54:13;102439.88;;;19.74
41654;BMP280;30790;52.030;7.110;2022-11-12T00:56:39;102428.72;;;19.69
41654;BMP280;30790;52.030;7.110;2022-11-12T00:59:04;102439.69;;;19.75
41654;BMP280;30790;52.030;7.110;2022-11-12T01:01:30;102428.72;;;19.69
41654;BMP280;30790;52.030;7.110;2022-11-12T01:03:57;102433.72;;;19.65
41654;BMP280;30790;52.030;7.110;2022-11-12T01:06:22;102437.94;;;19.68
41654;BMP280;30790;52.030;7.110;2022-11-12T01:08:49;102440.66;;;19.68
41654;BMP280;30790;52.030;7.110;2022-11-12T01:11:19;102444.00;;;19.70
41654;BMP280;30790;52.030;7.110;2022-11-12T01:13:46;102443.63;;;19.73
41654;BMP280;30790;52.030;7.110;2022-11-12T01:16:20;102439.59;;;19.69
41654;BMP280;30790;52.030;7.110;2022-11-12T01:18:46;102440.06;;;19.72
41654;BMP280;30790;52.030;7.110;2022-11-12T01:21:12;102440.84;;;19.66
41654;BMP280;30790;52.030;7.110;2022-11-12T01:23:39;102447.13;;;19.67
41654;BMP280;30790;52.030;7.110;2022-11-12T01:26:10;102445.69;;;19.71
41654;BMP280;30790;52.030;7.110;2022-11-12T01:28:36;102446.09;;;19.68
41654;BMP280;30790;52.030;7.110;2022-11-12T01:31:16;102436.84;;;19.62
41654;BMP280;30790;52.030;7.110;2022-11-12T01:33:44;102441.28;;;19.70
41654;BMP280;30790;52.030;7.110;2022-11-12T01:36:11;102448.59;;;19.63
41654;BMP280;30790;52.030;7.110;2022-11-12T01:38:38;102439.81;;;19.67
41654;BMP280;30790;52.030;7.110;2022-11-12T01:41:04;102443.78;;;19.65
41654;BMP280;30790;52.030;7.110;2022-11-12T01:43:30;102436.59;;;19.57
41654;BMP280;30790;52.030;7.110;2022-11-12T01:45:55;102432.66;;;19.60
41654;BMP280;30790;52.030;7.110;2022-11-12T01:48:25;102427.19;;;19.60
41654;BMP280;30790;52.030;7.110;2022-11-12T01:50:54;102427.41;;;19.58
41654;BMP280;30790;52.030;7.110;2022-11-12T01:53:22;102426.16;;;19.61
41654;BMP280;30790;52.030;7.110;2022-11-12T01:55:48;102424.47;;;19.60
41654;BMP280;30790;52.030;7.110;2022-11-12T01:58:17;102418.38;;;19.58
41654;BMP280;30790;52.030;7.110;2022-11-12T02:00:44;102415.66;;;19.58
41654;BMP280;30790;52.030;7.110;2022-11-12T02:03:23;102416.69;;;19.57
41654;BMP280;30790;52.030;7.110;2022-11-12T02:05:53;102411.91;;;19.59
41654;BMP280;30790;52.030;7.110;2022-11-12T02:08:22;102414.63;;;19.59
41654;BMP280;30790;52.030;7.110;2022-11-12T02:10:49;102420.72;;;19.61
41654;BMP280;30790;52.030;7.110;2022-11-12T02:13:15;102415.25;;;19.61
41654;BMP280;30790;52.030;7.110;2022-11-12T02:16:01;102407.88;;;19.55
41654;BMP280;30790;52.030;7.110;2022-11-12T02:18:26;102402.44;;;19.55
41654;BMP280;30790;52.030;7.110;2022-11-12T02:20:57;102415.03;;;19.56
41654;BMP280;30790;52.030;7.110;2022-11-12T02:23:22;102412.28;;;19.56
41654;BMP280;30790;52.030;7.110;2022-11-12T02:25:47;102407.69;;;19.56
41654;BMP280;30790;52.030;7.110;2022-11-12T02:28:13;102409.81;;;19.61
41654;BMP280;30790;52.030;7.110;2022-11-12T02:30:42;102408.53;;;19.57
41654;BMP280;30790;52.030;7.110;2022-11-12T02:33:08;102396.72;;;19.50
41654;BMP280;30790;52.030;7.110;2022-11-12T02:35:33;102403.09;;;19.57
41654;BMP280;30790;52.030;7.110;2022-11-12T02:37:59;102403.91;;;19.57
41654;BMP280;30790;52.030;7.110;2022-11-12T02:40:24;102403.53;;;19.60
41654;BMP280;30790;52.030;7.110;2022-11-12T02:42:49;102400.34;;;19.57
41654;BMP280;30790;52.030;7.110;2022-11-12T02:45:15;102404.34;;;19.61
41654;BMP280;30790;52.030;7.110;2022-11-12T02:47:41;102400.34;;;19.57
41654;BMP280;30790;52.030;7.110;2022-11-12T02:50:07;102405.41;;;19.60
41654;BMP280;30790;52.030;7.110;2022-11-12T02:52:32;102404.13;;;19.56
41654;BMP280;30790;52.030;7.110;2022-11-12T02:54:59;102401.78;;;19.53
41654;BMP280;30790;52.030;7.110;2022-11-12T02:57:24;102405.38;;;19.53
41654;BMP280;30790;52.030;7.110;2022-11-12T02:59:49;102404.97;;;19.56
41654;BMP280;30790;52.030;7.110;2022-11-12T03:02:14;102403.72;;;19.59
41654;BMP280;30790;52.030;7.110;2022-11-12T03:04:40;102399.50;;;19.56
41654;BMP280;30790;52.030;7.110;2022-11-12T03:07:05;102408.53;;;19.57
41654;BMP280;30790;52.030;7.110;2022-11-12T03:09:30;102403.00;;;19.50
41654;BMP280;30790;52.030;7.110;2022-11-12T03:11:55;102395.69;;;19.51
41654;BMP280;30790;52.030;7.110;2022-11-12T03:14:21;102397.97;;;19.47
41654;BMP280;30790;52.030;7.110;2022-11-12T03:16:46;102399.50;;;19.56
41654;BMP280;30790;52.030;7.110;2022-11-12T03:19:11;102400.75;;;19.54
41654;BMP280;30790;52.030;7.110;2022-11-12T03:21:37;102390.88;;;19.53
41654;BMP280;30790;52.030;7.110;2022-11-12T03:24:02;102403.47;;;19.54
41654;BMP280;30790;52.030;7.110;2022-11-12T03:26:27;102402.38;;;19.48
41654;BMP280;30790;52.030;7.110;2022-11-12T03:28:53;102403.22;;;19.49
41654;BMP280;30790;52.030;7.110;2022-11-12T03:31:18;102392.75;;;19.52
41654;BMP280;30790;52.030;7.110;2022-11-12T03:33:44;102391.69;;;19.47
41654;BMP280;30790;52.030;7.110;2022-11-12T03:36:09;102397.56;;;19.50
41654;BMP280;30790;52.030;7.110;2022-11-12T03:38:36;102389.16;;;19.45
41654;BMP280;30790;52.030;7.110;2022-11-12T03:41:01;102384.69;;;19.37
41654;BMP280;30790;52.030;7.110;2022-11-12T03:43:26;102390.63;;;19.48
41654;BMP280;30790;52.030;7.110;2022-11-12T03:45:51;102387.06;;;19.47
41654;BMP280;30790;52.030;7.110;2022-11-12T03:48:17;102401.78;;;19.53
41654;BMP280;30790;52.030;7.110;2022-11-12T03:50:42;102392.59;;;19.54
41654;BMP280;30790;52.030;7.110;2022-11-12T03:53:07;102385.69;;;19.58
41654;BMP280;30790;52.030;7.110;2022-11-12T03:55:33;102395.16;;;19.62
41654;BMP280;30790;52.030;7.110;2022-11-12T03:57:58;102384.47;;;19.67
41654;BMP280;30790;52.030;7.110;2022-11-12T04:00:25;102395.59;;;19.72
41654;BMP280;30790;52.030;7.110;2022-11-12T04:02:51;102391.41;;;19.69
41654;BMP280;30790;52.030;7.110;2022-11-12T04:05:16;102392.88;;;19.72
41654;BMP280;30790;52.030;7.110;2022-11-12T04:08:20;102394.00;;;19.78
41654;BMP280;30790;52.030;7.110;2022-11-12T04:11:14;102396.50;;;19.79
41654;BMP280;30790;52.030;7.110;2022-11-12T04:13:41;102392.75;;;19.80
41654;BMP280;30790;52.030;7.110;2022-11-12T04:16:15;102392.34;;;19.83
41654;BMP280;30790;52.030;7.110;2022-11-12T04:19:00;102394.22;;;19.83
41654;BMP280;30790;52.030;7.110;2022-11-12T04:21:47;102387.94;;;19.82
41654;BMP280;30790;52.030;7.110;2022-11-12T04:24:30;102392.34;;;19.83
41654;BMP280;30790;52.030;7.110;2022-11-12T04:27:23;102385.19;;;19.82
41654;BMP280;30790;52.030;7.110;2022-11-12T04:29:49;102385.84;;;19.84
41654;BMP280;30790;52.030;7.110;2022-11-12T04:32:38;102378.50;;;19.85
41654;BMP280;30790;52.030;7.110;2022-11-12T04:35:06;102378.50;;;19.85
41654;BMP280;30790;52.030;7.110;2022-11-12T04:37:33;102371.56;;;19.82
41654;BMP280;30790;52.030;7.110;2022-11-12T04:40:25;102373.47;;;19.82
41654;BMP280;30790;52.030;7.110;2022-11-12T04:43:12;102375.97;;;19.83
41654;BMP280;30790;52.030;7.110;2022-11-12T04:45:57;102375.34;;;19.81
41654;BMP280;30790;52.030;7.110;2022-11-12T04:48:24;102378.91;;;19.82
41654;BMP280;30790;52.030;7.110;2022-11-12T04:50:53;102377.03;;;19.82
41654;BMP280;30790;52.030;7.110;2022-11-12T04:53:20;102374.31;;;19.82
41654;BMP280;30790;52.030;7.110;2022-11-12T04:55:49;102366.34;;;19.81
41654;BMP280;30790;52.030;7.110;2022-11-12T04:58:14;102364.84;;;19.78
41654;BMP280;30790;52.030;7.110;2022-11-12T05:00:40;102369.25;;;19.79
41654;BMP280;30790;52.030;7.110;2022-11-12T05:03:05;102371.97;;;19.79
41654;BMP280;30790;52.030;7.110;2022-11-12T05:05:30;102371.16;;;19.79
41654;BMP280;30790;52.030;7.110;2022-11-12T05:07:58;102358.34;;;19.72
41654;BMP280;30790;52.030;7.110;2022-11-12T05:10:24;102355.78;;;19.71
41654;BMP280;30790;52.030;7.110;2022-11-12T05:12:49;102364.63;;;19.73
41654;BMP280;30790;52.030;7.110;2022-11-12T05:15:15;102365.47;;;19.73
41654;BMP280;30790;52.030;7.110;2022-11-12T05:17:43;102363.38;;;19.75
41654;BMP280;30790;52.030;7.110;2022-11-12T05:20:10;102356.81;;;19.70
41654;BMP280;30790;52.030;7.110;2022-11-12T05:22:35;102352.03;;;19.72
41654;BMP280;30790;52.030;7.110;2022-11-12T05:25:01;102344.03;;;19.70
41654;BMP280;30790;52.030;7.110;2022-11-12T05:27:26;102345.94;;;19.70
41654;BMP280;30790;52.030;7.110;2022-11-12T05:29:52;102345.72;;;19.71
41654;BMP280;30790;52.030;7.110;2022-11-12T05:32:17;102337.13;;;19.68
41654;BMP280;30790;52.030;7.110;2022-11-12T05:34:43;102335.25;;;19.68
41654;BMP280;30790;52.030;7.110;2022-11-12T05:37:11;102337.97;;;19.68
41654;BMP280;30790;52.030;7.110;2022-11-12T05:39:36;102340.69;;;19.68
41654;BMP280;30790;52.030;7.110;2022-11-12T05:42:02;102336.88;;;19.63
41654;BMP280;30790;52.030;7.110;2022-11-12T05:44:27;102338.81;;;19.69
41654;BMP280;30790;52.030;7.110;2022-11-12T05:46:52;102328.94;;;19.61
41654;BMP280;30790;52.030;7.110;2022-11-12T05:49:18;102337.13;;;19.68
41654;BMP280;30790;52.030;7.110;2022-11-12T05:51:43;102341.94;;;19.66
41654;BMP280;30790;52.030;7.110;2022-11-12T05:54:09;102335.84;;;19.64
41654;BMP280;30790;52.030;7.110;2022-11-12T05:56:35;102337.31;;;19.66
41654;BMP280;30790;52.030;7.110;2022-11-12T05:59:02;102335.66;;;19.65
41654;BMP280;30790;52.030;7.110;2022-11-12T06:01:28;102332.28;;;19.63
41654;BMP280;30790;52.030;7.110;2022-11-12T06:03:54;102331.88;;;19.66
41654;BMP280;30790;52.030;7.110;2022-11-12T06:06:20;102345.47;;;19.60
41654;BMP280;30790;52.030;7.110;2022-11-12T06:08:45;102341.72;;;19.61
41654;BMP280;30790;52.030;7.110;2022-11-12T06:11:10;102342.97;;;19.65
41654;BMP280;30790;52.030;7.110;2022-11-12T06:13:35;102342.00;;;19.79
41654;BMP280;30790;52.030;7.110;2022-11-12T06:16:01;102343.31;;;19.96
41654;BMP280;30790;52.030;7.110;2022-11-12T06:18:26;102336.25;;;20.09
41654;BMP280;30790;52.030;7.110;2022-11-12T06:20:51;102333.34;;;20.23
41654;BMP280;30790;52.030;7.110;2022-11-12T06:23:36;102345.75;;;20.39
41654;BMP280;30790;52.030;7.110;2022-11-12T06:26:01;102350.41;;;20.45
41654;BMP280;30790;52.030;7.110;2022-11-12T06:28:27;102357.34;;;20.54
41654;BMP280;30790;52.030;7.110;2022-11-12T06:30:53;102353.19;;;20.58
41654;BMP280;30790;52.030;7.110;2022-11-12T06:33:18;102354.22;;;20.57
41654;BMP280;30790;52.030;7.110;2022-11-12T06:35:44;102354.00;;;20.59
41654;BMP280;30790;52.030;7.110;2022-11-12T06:38:09;102351.50;;;20.64
41654;BMP280;30790;52.030;7.110;2022-11-12T06:40:34;102355.69;;;20.66
41654;BMP280;30790;52.030;7.110;2022-11-12T06:43:00;102348.34;;;20.67
41654;BMP280;30790;52.030;7.110;2022-11-12T06:45:25;102358.22;;;20.75
41654;BMP280;30790;52.030;7.110;2022-11-12T06:47:50;102355.28;;;20.76
41654;BMP280;30790;52.030;7.110;2022-11-12T06:50:16;102356.09;;;20.77
41654;BMP280;30790;52.030;7.110;2022-11-12T06:52:41;102356.09;;;20.77
41654;BMP280;30790;52.030;7.110;2022-11-12T06:55:07;102352.97;;;20.73
41654;BMP280;30790;52.030;7.110;2022-11-12T06:57:35;102355.28;;;20.76
41654;BMP280;30790;52.030;7.110;2022-11-12T07:00:00;102360.31;;;20.79
41654;BMP280;30790;52.030;7.110;2022-11-12T07:02:25;102365.97;;;20.78
41654;BMP280;30790;52.030;7.110;2022-11-12T07:04:51;102358.63;;;20.72
41654;BMP280;30790;52.030;7.110;2022-11-12T07:07:16;102364.28;;;20.77
41654;BMP280;30790;52.030;7.110;2022-11-12T07:09:41;102368.06;;;20.76
41654;BMP280;30790;52.030;7.110;2022-11-12T07:12:06;102376.25;;;20.76
41654;BMP280;30790;52.030;7.110;2022-11-12T07:14:32;102376.25;;;20.76
41654;BMP280;30790;52.030;7.110;2022-11-12T07:16:57;102375.44;;;20.68
41654;BMP280;30790;52.030;7.110;2022-11-12T07:19:22;102384.66;;;20.67
41654;BMP280;30790;52.030;7.110;2022-11-12T07:21:47;102375.00;;;20.65
41654;BMP280;30790;52.030;7.110;2022-11-12T07:24:13;102376.25;;;20.62
41654;BMP280;30790;52.030;7.110;2022-11-12T07:26:38;102374.38;;;20.56
41654;BMP280;30790;52.030;7.110;2022-11-12T07:29:03;102387.59;;;20.59
41654;BMP280;30790;52.030;7.110;2022-11-12T07:31:28;102381.72;;;20.56
41654;BMP280;30790;52.030;7.110;2022-11-12T07:33:54;102391.53;;;20.50
41654;BMP280;30790;52.030;7.110;2022-11-12T07:36:20;102392.19;;;20.52
41654;BMP280;30790;52.030;7.110;2022-11-12T07:38:46;102388.38;;;20.40
41654;BMP280;30790;52.030;7.110;2022-11-12T07:41:19;102390.69;;;20.43
41654;BMP280;30790;52.030;7.110;2022-11-12T07:43:47;102393.84;;;20.40
41654;BMP280;30790;52.030;7.110;2022-11-12T07:46:15;102407.63;;;20.32
41654;BMP280;30790;52.030;7.110;2022-11-12T07:48:41;102403.88;;;20.33
41654;BMP280;30790;52.030;7.110;2022-11-12T07:51:16;102413.94;;;20.39
41654;BMP280;30790;52.030;7.110;2022-11-12T07:53:43;102410.19;;;20.40
41654;BMP280;30790;52.030;7.110;2022-11-12T07:56:14;102408.13;;;20.42
41654;BMP280;30790;52.030;7.110;2022-11-12T07:58:40;102406.44;;;20.41
41654;BMP280;30790;52.030;7.110;2022-11-12T08:01:27;102415.44;;;20.42
41654;BMP280;30790;52.030;7.110;2022-11-12T08:03:54;102422.38;;;20.44
41654;BMP280;30790;52.030;7.110;2022-11-12T08:06:19;102420.50;;;20.45
41654;BMP280;30790;52.030;7.110;2022-11-12T08:08:45;102418.19;;;20.48
41654;BMP280;30790;52.030;7.110;2022-11-12T08:11:10;102417.56;;;20.46
41654;BMP280;30790;52.030;7.110;2022-11-12T08:13:35;102425.34;;;20.49
41654;BMP280;30790;52.030;7.110;2022-11-12T08:16:01;102414.78;;;20.40
41654;BMP280;30790;52.030;7.110;2022-11-12T08:18:26;102429.53;;;20.45
41654;BMP280;30790;52.030;7.110;2022-11-12T08:20:58;102428.69;;;20.45
41654;BMP280;30790;52.030;7.110;2022-11-12T08:23:23;102424.06;;;20.45
41654;BMP280;30790;52.030;7.110;2022-11-12T08:25:48;102421.75;;;20.42
41654;BMP280;30790;52.030;7.110;2022-11-12T08:28:14;102415.44;;;20.42
41654;BMP280;30790;52.030;7.110;2022-11-12T08:30:39;102425.34;;;20.49
41654;BMP280;30790;52.030;7.110;2022-11-12T08:33:05;102422.19;;;20.52
41654;BMP280;30790;52.030;7.110;2022-11-12T08:35:31;102425.38;;;20.56
41654;BMP280;30790;52.030;7.110;2022-11-12T08:38:01;102437.34;;;20.61
41654;BMP280;30790;52.030;7.110;2022-11-12T08:40:28;102436.72;;;20.59
41654;BMP280;30790;52.030;7.110;2022-11-12T08:43:05;102443.00;;;20.60
41654;BMP280;30790;52.030;7.110;2022-11-12T08:45:32;102437.34;;;20.61
41654;BMP280;30790;52.030;7.110;2022-11-12T08:48:03;102431.69;;;20.63
41654;BMP280;30790;52.030;7.110;2022-11-12T08:50:29;102438.38;;;20.60
41654;BMP280;30790;52.030;7.110;2022-11-12T08:52:59;102441.75;;;20.62
41654;BMP280;30790;52.030;7.110;2022-11-12T08:55:25;102441.31;;;20.59
41654;BMP280;30790;52.030;7.110;2022-11-12T08:57:51;102436.28;;;20.56
41654;BMP280;30790;52.030;7.110;2022-11-12T09:00:16;102431.66;;;20.56
41654;BMP280;30790;52.030;7.110;2022-11-12T09:02:42;102431.00;;;20.54
41654;BMP280;30790;52.030;7.110;2022-11-12T09:05:07;102447.63;;;20.59
41654;BMP280;30790;52.030;7.110;2022-11-12T09:07:32;102444.25;;;20.57
41654;BMP280;30790;52.030;7.110;2022-11-12T09:09:58;102447.81;;;20.58
41654;BMP280;30790;52.030;7.110;2022-11-12T09:12:23;102451.81;;;20.55
41654;BMP280;30790;52.030;7.110;2022-11-12T09:14:48;102443.22;;;20.58
41654;BMP280;30790;52.030;7.110;2022-11-12T09:17:14;102444.00;;;20.52
41654;BMP280;30790;52.030;7.110;2022-11-12T09:19:39;102449.72;;;20.57
41654;BMP280;30790;52.030;7.110;2022-11-12T09:22:05;102455.56;;;20.54
41654;BMP280;30790;52.030;7.110;2022-11-12T09:24:30;102457.66;;;20.52
41654;BMP280;30790;52.030;7.110;2022-11-12T09:26:55;102456.81;;;20.52
41654;BMP280;30790;52.030;7.110;2022-11-12T09:29:21;102448.63;;;20.45
41654;BMP280;30790;52.030;7.110;2022-11-12T09:31:46;102457.22;;;20.49
41654;BMP280;30790;52.030;7.110;2022-11-12T09:34:11;102458.06;;;20.49
41654;BMP280;30790;52.030;7.110;2022-11-12T09:36:37;102456.59;;;20.53
41654;BMP280;30790;52.030;7.110;2022-11-12T09:39:03;102457.84;;;20.44
41654;BMP280;30790;52.030;7.110;2022-11-12T09:41:32;102451.97;;;20.47
41654;BMP280;30790;52.030;7.110;2022-11-12T09:44:04;102454.06;;;20.45
41654;BMP280;30790;52.030;7.110;2022-11-12T09:46:47;102461.13;;;20.33
41654;BMP280;30790;52.030;7.110;2022-11-12T09:49:15;102445.56;;;20.27
41654;BMP280;30790;52.030;7.110;2022-11-12T09:51:47;102460.19;;;20.13
41654;BMP280;30790;52.030;7.110;2022-11-12T09:54:27;102449.03;;;20.01
41654;BMP280;30790;52.030;7.110;2022-11-12T09:56:54;102454.94;;;20.04
41654;BMP280;30790;52.030;7.110;2022-11-12T09:59:20;102444.88;;;20.05
41654;BMP280;30790;52.030;7.110;2022-11-12T10:01:55;102446.34;;;20.08
41654;BMP280;30790;52.030;7.110;2022-11-12T10:07:27;102441.03;;;19.99
41654;BMP280;30790;52.030;7.110;2022-11-12T10:18:45;102435.56;;;19.93
41654;BMP280;30790;52.030;7.110;2022-11-12T10:21:25;102433.03;;;19.91
41654;BMP280;30790;52.030;7.110;2022-11-12T10:23:55;102432.16;;;19.84
41654;BMP280;30790;52.030;7.110;2022-11-12T10:26:22;102431.34;;;19.90
41654;BMP280;30790;52.030;7.110;2022-11-12T10:28:54;102432.44;;;19.61
41654;BMP280;30790;52.030;7.110;2022-11-12T10:31:22;102433.03;;;18.86
41654;BMP280;30790;52.030;7.110;2022-11-12T10:33:47;102432.22;;;18.64
41654;BMP280;30790;52.030;7.110;2022-11-12T10:36:20;102433.13;;;18.35
41654;BMP280;30790;52.030;7.110;2022-11-12T10:38:51;102428.97;;;18.39
41654;BMP280;30790;52.030;7.110;2022-11-12T10:41:26;102431.06;;;18.37
41654;BMP280;30790;52.030;7.110;2022-11-12T10:43:53;102424.38;;;18.61
41654;BMP280;30790;52.030;7.110;2022-11-12T10:46:21;102417.03;;;19.19
41654;BMP280;30790;52.030;7.110;2022-11-12T10:48:56;102419.97;;;19.45
41654;BMP280;30790;52.030;7.110;2022-11-12T10:51:30;102416.13;;;19.68
41654;BMP280;30790;52.030;7.110;2022-11-12T10:53:56;102407.88;;;19.89
41654;BMP280;30790;52.030;7.110;2022-11-12T10:56:29;102401.78;;;19.87
41654;BMP280;30790;52.030;7.110;2022-11-12T11:01:39;102388.69;;;20.11
41654;BMP280;30790;52.030;7.110;2022-11-12T11:04:05;102395.41;;;20.21
41654;BMP280;30790;52.030;7.110;2022-11-12T11:06:39;102382.00;;;20.20
41654;BMP280;30790;52.030;7.110;2022-11-12T11:11:36;102387.97;;;20.43
41654;BMP280;30790;52.030;7.110;2022-11-12T11:14:30;102388.66;;;20.58
41654;BMP280;30790;52.030;7.110;2022-11-12T11:17:02;102390.13;;;20.61
41654;BMP280;30790;52.030;7.110;2022-11-12T11:19:36;102387.59;;;20.59
41654;BMP280;30790;52.030;7.110;2022-11-12T11:27:41;102382.34;;;20.64
41654;BMP280;30790;52.030;7.110;2022-11-12T11:30:18;102375.22;;;20.63
41654;BMP280;30790;52.030;7.110;2022-11-12T11:44:02;102372.03;;;20.53
41654;BMP280;30790;52.030;7.110;2022-11-12T11:46:42;102382.72;;;20.48
41654;BMP280;30790;52.030;7.110;2022-11-12T11:52:48;102374.94;;;20.38
41654;BMP280;30790;52.030;7.110;2022-11-12T12:00:42;102366.25;;;20.09
41654;BMP280;30790;52.030;7.110;2022-11-12T12:03:17;102372.63;;;19.81
41654;BMP280;30790;52.030;7.110;2022-11-12T12:08:44;102355.88;;;19.84
41654;BMP280;30790;52.030;7.110;2022-11-12T12:11:28;102352.03;;;19.72
41654;BMP280;30790;52.030;7.110;2022-11-12T12:14:21;102349.56;;;19.77
41654;BMP280;30790;52.030;7.110;2022-11-12T12:17:02;102356.63;;;19.71
41654;BMP280;30790;52.030;7.110;2022-11-12T12:22:12;102357.88;;;19.69
41654;BMP280;30790;52.030;7.110;2022-11-12T12:24:52;102360.41;;;19.70
41654;BMP280;30790;52.030;7.110;2022-11-12T12:27:22;102350.16;;;19.72
41654;BMP280;30790;52.030;7.110;2022-11-12T12:29:58;102342.88;;;19.86
41654;BMP280;30790;52.030;7.110;2022-11-12T12:32:36;102340.63;;;20.03
41654;BMP280;30790;52.030;7.110;2022-11-12T12:37:45;102336.69;;;20.12
41654;BMP280;30790;52.030;7.110;2022-11-12T12:40:27;102338.56;;;20.12
41654;BMP280;30790;52.030;7.110;2022-11-12T12:43:28;102330.78;;;20.09
41654;BMP280;30790;52.030;7.110;2022-11-12T12:45:57;102318.22;;;20.08
41654;BMP280;30790;52.030;7.110;2022-11-12T12:48:27;102329.13;;;20.08
41654;BMP280;30790;52.030;7.110;2022-11-12T12:50:54;102329.34;;;20.13
41654;BMP280;30790;52.030;7.110;2022-11-12T12:55:52;102330.19;;;20.13
41654;BMP280;30790;52.030;7.110;2022-11-12T13:01:05;102322.63;;;20.09
41654;BMP280;30790;52.030;7.110;2022-11-12T13:08:58;102320.31;;;20.05
41654;BMP280;30790;52.030;7.110;2022-11-12T13:16:59;102316.88;;;19.90
41654;BMP280;30790;52.030;7.110;2022-11-12T13:19:30;102317.94;;;19.89
41654;BMP280;30790;52.030;7.110;2022-11-12T13:33:02;102291.72;;;19.82
41654;BMP280;30790;52.030;7.110;2022-11-12T13:35:35;102300.31;;;19.85
41654;BMP280;30790;52.030;7.110;2022-11-12T13:40:40;102298.00;;;19.89
41654;BMP280;30790;52.030;7.110;2022-11-12T13:43:12;102298.22;;;19.87
41654;BMP280;30790;52.030;7.110;2022-11-12T13:45:45;102299.69;;;19.83
41654;BMP280;30790;52.030;7.110;2022-11-12T13:48:27;102300.31;;;19.85
41654;BMP280;30790;52.030;7.110;2022-11-12T13:50:55;102299.28;;;19.86
41654;BMP280;30790;52.030;7.110;2022-11-12T13:53:25;102300.94;;;19.87
41654;BMP280;30790;52.030;7.110;2022-11-12T13:55:52;102303.25;;;19.84
41654;BMP280;30790;52.030;7.110;2022-11-12T13:58:25;102299.72;;;19.96
41654;BMP280;30790;52.030;7.110;2022-11-12T14:00:52;102299.66;;;19.77
41654;BMP280;30790;52.030;7.110;2022-11-12T14:03:19;102302.53;;;19.68
41654;BMP280;30790;52.030;7.110;2022-11-12T14:05:47;102290.34;;;19.58
41654;BMP280;30790;52.030;7.110;2022-11-12T14:11:15;102287.22;;;19.61
41654;BMP280;30790;52.030;7.110;2022-11-12T14:13:57;102299.16;;;19.60
41654;BMP280;30790;52.030;7.110;2022-11-12T14:22:18;102294.13;;;19.57
41654;BMP280;30790;52.030;7.110;2022-11-12T14:24:49;102282.19;;;19.58
41654;BMP280;30790;52.030;7.110;2022-11-12T14:32:37;102290.34;;;19.58
41654;BMP280;30790;52.030;7.110;2022-11-12T14:35:17;102286.34;;;19.54
41654;BMP280;30790;52.030;7.110;2022-11-12T14:37:48;102284.91;;;19.58
41654;BMP280;30790;52.030;7.110;2022-11-12T14:40:17;102284.50;;;19.61
41654;BMP280;30790;52.030;7.110;2022-11-12T14:42:42;102276.88;;;19.50
41654;BMP280;30790;52.030;7.110;2022-11-12T14:45:15;102285.78;;;19.65
41654;BMP280;30790;52.030;7.110;2022-11-12T14:47:42;102281.56;;;19.56
41654;BMP280;30790;52.030;7.110;2022-11-12T14:50:13;102282.63;;;19.68
41654;BMP280;30790;52.030;7.110;2022-11-12T14:52:43;102284.94;;;19.71
41654;BMP280;30790;52.030;7.110;2022-11-12T14:55:17;102287.28;;;19.74
41654;BMP280;30790;52.030;7.110;2022-11-12T14:57:45;102289.81;;;19.75
41654;BMP280;30790;52.030;7.110;2022-11-12T15:00:35;102280.78;;;19.75
41654;BMP280;30790;52.030;7.110;2022-11-12T15:03:01;102280.78;;;19.75
41654;BMP280;30790;52.030;7.110;2022-11-12T15:05:28;102279.75;;;19.76
41654;BMP280;30790;52.030;7.110;2022-11-12T15:08:05;102274.50;;;19.74
41654;BMP280;30790;52.030;7.110;2022-11-12T15:13:11;102276.59;;;19.72
41654;BMP280;30790;52.030;7.110;2022-11-12T15:16:08;102279.88;;;19.55
41654;BMP280;30790;52.030;7.110;2022-11-12T15:18:35;102278.41;;;19.59
41654;BMP280;30790;52.030;7.110;2022-11-12T15:21:17;102281.34;;;19.57
41654;BMP280;30790;52.030;7.110;2022-11-12T15:26:38;102281.59;;;19.69
41654;BMP280;30790;52.030;7.110;2022-11-12T15:31:47;102276.47;;;19.53
41654;BMP280;30790;52.030;7.110;2022-11-12T15:37:05;102266.47;;;19.60
41654;BMP280;30790;52.030;7.110;2022-11-12T15:39:37;102266.72;;;19.71
41654;BMP280;30790;52.030;7.110;2022-11-12T15:42:13;102259.22;;;19.80
41654;BMP280;30790;52.030;7.110;2022-11-12T15:44:40;102249.81;;;19.89
41654;BMP280;30790;52.030;7.110;2022-11-12T15:47:17;102251.53;;;20.10
41654;BMP280;30790;52.030;7.110;2022-11-12T15:49:51;102244.66;;;20.27
41654;BMP280;30790;52.030;7.110;2022-11-12T15:52:17;102247.41;;;20.41